| time (UTC) | temp C | wind direction | speed KPH | gust KPH | rain 1hr cm | rain 24hr cm | rain mn cm | humidity % | barometer mb |
| 20260906114557 | 18 | 226 | 0.0 | 1.6 | 0.00 | 0.48 | 0.00 | 94 | 1017.7 |
| 20260906113047 | 18 | 0 | 0.0 | 0.0 | 0.00 | 0.48 | 0.00 | 94 | 1017.7 |
| 20260906111543 | 18 | 0 | 0.0 | 0.0 | 0.00 | 0.48 | 0.00 | 93 | 1017.4 |
| 20260906110046 | 18 | 0 | 0.0 | 0.0 | 0.00 | 0.48 | 0.00 | 94 | 1017.2 |
| 20260906104601 | 18 | 0 | 0.0 | 0.0 | 0.00 | 0.48 | 0.00 | 94 | 1017.0 |
| 20260906103044 | 18 | 0 | 0.0 | 0.0 | 0.00 | 0.48 | 0.00 | 94 | 1016.8 |
| 20260906101545 | 18 | 0 | 0.0 | 0.0 | 0.00 | 0.48 | 0.00 | 93 | 1016.7 |
| 20260906100045 | 17 | 0 | 0.0 | 0.0 | 0.00 | 0.48 | 0.00 | 93 | 1016.7 |
| 20260906094546 | 17 | 0 | 0.0 | 1.6 | 0.00 | 0.48 | 0.00 | 93 | 1016.5 |
| 20260906093058 | 17 | 0 | 0.0 | 0.0 | 0.00 | 0.48 | 0.00 | 93 | 1016.4 |
| 20260906091542 | 17 | 0 | 0.0 | 0.0 | 0.00 | 0.48 | 0.00 | 93 | 1016.2 |
| 20260906090050 | 17 | 226 | 0.0 | 3.2 | 0.00 | 0.48 | 0.00 | 93 | 1016.2 |
| 20260906084545 | 17 | 226 | 0.0 | 1.6 | 0.00 | 0.48 | 0.00 | 93 | 1016.4 |
| 20260906083045 | 17 | 0 | 0.0 | 3.2 | 0.00 | 0.48 | 0.00 | 93 | 1016.4 |
| 20260906081544 | 17 | 0 | 0.0 | 3.2 | 0.00 | 0.48 | 0.00 | 93 | 1016.5 |
| 20260906080047 | 17 | 226 | 3.2 | 6.4 | 0.00 | 0.48 | 0.00 | 93 | 1016.5 |
| 20260906074545 | 17 | 226 | 1.6 | 4.8 | 0.00 | 0.48 | 0.00 | 92 | 1016.4 |
| 20260906073047 | 17 | 0 | 0.0 | 3.2 | 0.00 | 0.48 | 0.00 | 92 | 1016.4 |
| 20260906071545 | 17 | 0 | 0.0 | 0.0 | 0.00 | 0.48 | 0.00 | 92 | 1016.5 |
| 20260906070045 | 17 | 0 | 0.0 | 1.6 | 0.00 | 0.48 | 0.00 | 92 | 1016.6 |
| 20260906064544 | 17 | 0 | 0.0 | 3.2 | 0.00 | 0.48 | 0.00 | 92 | 1016.6 |
| 20260906063046 | 17 | 0 | 0.0 | 4.8 | 0.00 | 0.48 | 0.00 | 92 | 1016.8 |
| 20260906061545 | 17 | 226 | 0.0 | 3.2 | 0.00 | 0.48 | 0.00 | 92 | 1016.8 |
| 20260906060044 | 17 | 0 | 0.0 | 0.0 | 0.00 | 0.48 | 0.00 | 92 | 1017.2 |
| 20260906054601 | 17 | 0 | 0.0 | 1.6 | 0.00 | 0.48 | 0.00 | 92 | 1017.2 |
| 20260906053047 | 17 | 0 | 0.0 | 0.0 | 0.00 | 0.48 | 0.00 | 92 | 1017.3 |
| 20260906051545 | 17 | 0 | 0.0 | 3.2 | 0.00 | 0.48 | 0.00 | 91 | 1017.2 |
| 20260906050105 | 17 | 226 | 3.2 | 6.4 | 0.00 | 0.48 | 0.00 | 91 | 1017.3 |
| 20260906044549 | 17 | 0 | 0.0 | 1.6 | 0.00 | 0.48 | 0.00 | 91 | 1017.0 |
| 20260906043044 | 18 | 226 | 1.6 | 4.8 | 0.00 | 0.48 | 0.00 | 90 | 1017.2 |
| 20260906041543 | 18 | 0 | 0.0 | 1.6 | 0.00 | 0.48 | 0.00 | 90 | 1017.2 |
| 20260906040043 | 18 | 0 | 0.0 | 1.6 | 0.00 | 0.48 | 0.00 | 90 | 1017.6 |
| 20260906034546 | 18 | 0 | 0.0 | 1.6 | 0.00 | 0.48 | 0.48 | 90 | 1017.6 |
| 20260906033053 | 18 | 0 | 0.0 | 3.2 | 0.00 | 0.48 | 0.48 | 89 | 1017.7 |
| 20260906031547 | 19 | 226 | 1.6 | 4.8 | 0.00 | 0.48 | 0.48 | 88 | 1017.9 |
| 20260906030044 | 19 | 0 | 0.0 | 1.6 | 0.00 | 0.48 | 0.48 | 88 | 1017.8 |
| 20260906024545 | 19 | 226 | 1.6 | 4.8 | 0.00 | 0.48 | 0.48 | 88 | 1017.7 |
| 20260906023048 | 20 | 226 | 1.6 | 3.2 | 0.00 | 0.48 | 0.48 | 87 | 1017.9 |
| 20260906021552 | 20 | 0 | 0.0 | 0.0 | 0.00 | 0.48 | 0.48 | 87 | 1017.8 |
| 20260906020052 | 20 | 0 | 0.0 | 1.6 | 0.00 | 0.48 | 0.48 | 86 | 1017.9 |
| 20260906014554 | 21 | 226 | 0.0 | 3.2 | 0.00 | 0.48 | 0.48 | 86 | 1017.8 |
| 20260906013049 | 21 | 0 | 1.6 | 9.7 | 0.00 | 0.48 | 0.48 | 85 | 1017.7 |
| 20260906011544 | 21 | 229 | 1.6 | 6.4 | 0.00 | 0.48 | 0.48 | 84 | 1017.4 |
| 20260906010046 | 21 | 231 | 4.8 | 6.4 | 0.00 | 0.48 | 0.48 | 83 | 1017.2 |
| 20260906004548 | 21 | 226 | 1.6 | 6.4 | 0.00 | 0.48 | 0.48 | 82 | 1017.0 |
| 20260906003047 | 21 | 295 | 1.6 | 11.3 | 0.00 | 0.48 | 0.48 | 81 | 1017.0 |
| 20260906001543 | 22 | 283 | 0.0 | 6.4 | 0.00 | 0.48 | 0.48 | 80 | 1016.8 |
| 20260906000046 | 22 | 229 | 3.2 | 8.0 | 0.00 | 0.48 | 0.48 | 78 | 1016.8 |
| 20260905234606 | 22 | 278 | 3.2 | 6.4 | 0.00 | 0.48 | 0.48 | 77 | 1016.8 |
| 20260905233045 | 22 | 309 | 1.6 | 12.9 | 0.00 | 0.48 | 0.48 | 76 | 1016.8 |
| 20260905231547 | 23 | 258 | 3.2 | 9.7 | 0.00 | 0.48 | 0.48 | 75 | 1017.0 |
| 20260905230109 | 23 | 259 | 6.4 | 12.9 | 0.00 | 0.48 | 0.48 | 74 | 1017.1 |
| 20260905224544 | 23 | 238 | 4.8 | 17.7 | 0.00 | 0.48 | 0.48 | 73 | 1017.1 |
| 20260905223044 | 24 | 301 | 6.4 | 14.5 | 0.00 | 0.48 | 0.48 | 73 | 1016.9 |
| 20260905221554 | 24 | 285 | 4.8 | 14.5 | 0.00 | 0.48 | 0.48 | 73 | 1017.0 |
| 20260905220045 | 25 | 290 | 6.4 | 17.7 | 0.00 | 0.48 | 0.48 | 70 | 1016.7 |
| 20260905214544 | 26 | 237 | 11.3 | 19.3 | 0.00 | 0.48 | 0.48 | 67 | 1016.5 |
| 20260905213049 | 26 | 341 | 3.2 | 12.9 | 0.00 | 0.48 | 0.48 | 67 | 1016.3 |
| 20260905211551 | 26 | 343 | 6.4 | 17.7 | 0.00 | 0.48 | 0.48 | 68 | 1016.4 |
| 20260905210044 | 26 | 299 | 6.4 | 14.5 | 0.00 | 0.48 | 0.48 | 68 | 1016.2 |
| 20260905204542 | 26 | 319 | 8.0 | 17.7 | 0.00 | 0.48 | 0.48 | 69 | 1016.2 |
| 20260905203054 | 26 | 262 | 8.0 | 17.7 | 0.00 | 0.48 | 0.48 | 69 | 1016.4 |
| 20260905201545 | 26 | 307 | 6.4 | 16.1 | 0.00 | 0.48 | 0.48 | 66 | 1016.5 |
| 20260905200046 | 25 | 291 | 14.5 | 24.1 | 0.00 | 0.48 | 0.48 | 64 | 1016.5 |
| 20260905194545 | 25 | 322 | 9.7 | 24.1 | 0.00 | 0.48 | 0.48 | 69 | 1016.6 |
| 20260905193105 | 26 | 322 | 6.4 | 16.1 | 0.00 | 0.48 | 0.48 | 72 | 1017.0 |
| 20260905191545 | 25 | 311 | 11.3 | 19.3 | 0.00 | 0.48 | 0.48 | 69 | 1017.0 |
| 20260905190044 | 25 | 294 | 9.7 | 19.3 | 0.00 | 0.48 | 0.48 | 72 | 1017.3 |
| 20260905184551 | 24 | 283 | 9.7 | 17.7 | 0.00 | 0.48 | 0.48 | 72 | 1017.4 |
| 20260905183051 | 24 | 323 | 6.4 | 16.1 | 0.00 | 0.48 | 0.48 | 73 | 1017.4 |
| 20260905181544 | 24 | 254 | 4.8 | 14.5 | 0.00 | 0.48 | 0.48 | 75 | 1017.6 |
| 20260905180049 | 24 | 291 | 9.7 | 14.5 | 0.00 | 0.48 | 0.48 | 77 | 1017.8 |
| 20260905174548 | 23 | 337 | 3.2 | 11.3 | 0.00 | 0.48 | 0.48 | 86 | 1018.2 |
| 20260905173044 | 22 | 266 | 8.0 | 16.1 | 0.00 | 0.48 | 0.48 | 85 | 1018.4 |
| 20260905171545 | 22 | 297 | 6.4 | 14.5 | 0.00 | 0.48 | 0.48 | 86 | 1018.2 |
| 20260905170046 | 22 | 249 | 8.0 | 16.1 | 0.00 | 0.48 | 0.48 | 84 | 1018.4 |
| 20260905164545 | 22 | 208 | 3.2 | 16.1 | 0.00 | 0.48 | 0.48 | 88 | 1018.2 |
| 20260905163045 | 21 | 204 | 11.3 | 17.7 | 0.00 | 0.48 | 0.48 | 88 | 1018.2 |
| 20260905161546 | 21 | 167 | 1.6 | 11.3 | 0.00 | 0.48 | 0.48 | 90 | 1018.1 |
| 20260905160044 | 20 | 194 | 4.8 | 12.9 | 0.00 | 0.48 | 0.48 | 90 | 1018.5 |
| 20260905154555 | 20 | 175 | 3.2 | 8.0 | 0.00 | 0.48 | 0.48 | 89 | 1019.3 |
| 20260905153044 | 21 | 348 | 1.6 | 11.3 | 0.00 | 0.48 | 0.48 | 89 | 1019.7 |
| 20260905151549 | 21 | 280 | 6.4 | 11.3 | 0.00 | 0.48 | 0.48 | 89 | 1019.8 |
| 20260905150044 | 21 | 0 | 1.6 | 9.7 | 0.13 | 0.48 | 0.48 | 91 | 1020.0 |
| 20260905144545 | 20 | 280 | 1.6 | 6.4 | 0.48 | 0.48 | 0.48 | 92 | 1019.8 |
| 20260905143042 | 19 | 0 | 1.6 | 12.9 | 0.48 | 0.48 | 0.48 | 90 | 1019.8 |
| 20260905141547 | 20 | 18 | 3.2 | 12.9 | 0.48 | 0.48 | 0.48 | 89 | 1020.0 |
| 20260905140044 | 20 | 68 | 9.7 | 30.6 | 0.36 | 0.36 | 0.36 | 88 | 1020.1 |
| 20260905134547 | 21 | 247 | 8.0 | 16.1 | 0.00 | 0.00 | 0.00 | 89 | 1019.0 |
| 20260905133045 | 22 | 243 | 6.4 | 16.1 | 0.00 | 0.00 | 0.00 | 89 | 1018.8 |
| 20260905131543 | 22 | 274 | 6.4 | 14.5 | 0.00 | 0.00 | 0.00 | 90 | 1018.8 |
| 20260905130043 | 21 | 218 | 9.7 | 17.7 | 0.00 | 0.00 | 0.00 | 90 | 1018.6 |
| 20260905124547 | 21 | 255 | 11.3 | 16.1 | 0.00 | 0.00 | 0.00 | 91 | 1018.6 |
| 20260905123048 | 21 | 227 | 8.0 | 14.5 | 0.00 | 0.00 | 0.00 | 92 | 1018.8 |
| 20260905121543 | 20 | 245 | 4.8 | 11.3 | 0.00 | 0.00 | 0.00 | 93 | 1018.8 |
| 20260905120046 | 20 | 203 | 4.8 | 9.7 | 0.00 | 0.00 | 0.00 | 93 | 1018.6 |